Ukiah, CA

5:58 AM PDT on September 05, 2015 (GMT -0700)
Ukiah Municipal | | Change Station
CLOSE
Current Station
Airport
Location: Ukiah,
Elevation: 614 ft
Nearby Weather Stations

Elev 614 ft 39.13 °N, 123.20 °W | Updated 2 minutes ago

Clear
Clear
47 °F
Feels Like 47 °F
N
0
Wind Variable Wind from North

Today
High -- | Low -- °F
--% Chance of Precip.
Yesterday
High -- | Low -- °F
Precip. -- in
6:44 AM 7:37 PM
Waning Gibbous, 49% visible
Pressure 29.97 in
Visibility 10.0 miles
Clouds Clear
Dew Point 40 °F
Humidity 77%
Rainfall 0.00 in
Snow Depth Not available.
UV 0 out of 12
Pollen 7.50 out of 12
Air Quality Not available.
Flu Activity Not available.
METAR KUKI 051256Z AUTO 00000KT 10SM CLR 08/04 A2999 RMK AO2 SLP149 T00830044
Pressure 29.97 in
Visibility 10.0 miles
Clouds Clear
Dew Point 40 °F
Humidity 77%
Rainfall 0.00 in
Snow Depth Not available.
UV 0 out of 12
Pollen 7.50 out of 12
Air Quality Not available.
Flu Activity Not available.
METAR KUKI 051256Z AUTO 00000KT 10SM CLR 08/04 A2999 RMK AO2 SLP149 T00830044

10-Day Weather Forecast

×

Almanac

Astronomy

Sep. 05, 2015 Rise Set
Actual Time
Civil Twilight
Nautical Twilight
Astronomical Twilight
Moon
Length of Visible Light
Length of Day
Tomorrow will be .
, % of the Moon is Illuminated

Today's Extremes

State Highs State Lows

Community

WunderPhotos

Upload Photos

1,852,454 photos uploaded!

WunderBlogs® & News

Nearby

Air Quality

  Air Quality AQ Index Pollutant
Not available.

Snow Depth

Station Depth Elevation

Earthquake Activity

City Distance Mag. Time & Date
Minimum magnitude displayed is 2.5.

Coastal Water Temperatures

Place Temperature

Stations

Nearby Weather Stations

Station Location Temp. Windchill Dew Point Humidity Wind Precip. Elev Updated Type